createdAt,value
2018-04-19T00:00:34.843Z,29.03
2018-04-19T00:03:45.317Z,29.97
2018-04-19T00:06:54.791Z,30.50
2018-04-19T00:10:06.686Z,29.80
2018-04-19T00:13:16.727Z,30.53
2018-04-19T00:16:26.576Z,29.37
2018-04-19T00:19:36.835Z,32.03
2018-04-19T00:22:46.230Z,32.63
2018-04-19T00:25:56.535Z,31.42
2018-04-19T00:29:06.974Z,31.60
2018-04-19T00:32:16.433Z,32.70
2018-04-19T00:35:25.870Z,32.40
2018-04-19T00:38:36.145Z,30.77
2018-04-19T00:41:45.557Z,32.65
2018-04-19T00:44:55.564Z,31.80
2018-04-19T00:48:07.287Z,32.57
2018-04-19T00:51:17.135Z,31.77
2018-04-19T00:54:27.427Z,31.50
2018-04-19T00:57:37.673Z,30.37
2018-04-19T01:00:47.971Z,31.83
2018-04-19T01:03:57.798Z,30.53
2018-04-19T01:07:08.623Z,29.10
2018-04-19T01:10:18.003Z,29.77
2018-04-19T01:13:28.371Z,29.37
2018-04-19T01:16:37.927Z,28.70
2018-04-19T01:19:47.702Z,29.17
2018-04-19T01:22:57.920Z,30.17
2018-04-19T01:26:09.579Z,28.77
2018-04-19T01:29:19.486Z,28.13
2018-04-19T01:32:30.653Z,29.07
2018-04-19T01:35:57.988Z,27.20
2018-04-19T01:39:07.767Z,27.97
2018-04-19T01:42:18.193Z,27.07
2018-04-19T01:45:27.553Z,26.55
2018-04-19T01:48:37.176Z,26.93
2018-04-19T01:51:47.930Z,26.03
2018-04-19T01:54:57.528Z,25.10
2018-04-19T01:58:07.412Z,25.00
2018-04-19T02:01:16.852Z,24.33
2018-04-19T02:04:26.301Z,24.43
2018-04-19T02:07:35.699Z,25.00
2018-04-19T02:10:45.571Z,24.23
2018-04-19T02:13:54.994Z,23.87
2018-04-19T02:17:09.293Z,24.60
2018-04-19T02:20:18.777Z,25.00
2018-04-19T02:23:28.253Z,24.80
2018-04-19T02:26:38.535Z,23.77
2018-04-19T02:29:47.906Z,25.23
2018-04-19T02:32:57.343Z,24.50
2018-04-19T02:36:07.604Z,25.03
2018-04-19T02:39:17.089Z,23.27
2018-04-19T02:42:26.476Z,24.53
2018-04-19T02:45:36.766Z,22.93
2018-04-19T02:48:46.264Z,23.23
2018-04-19T02:52:00.222Z,21.60
2018-04-19T02:55:09.684Z,23.30
2018-04-19T02:58:22.994Z,23.30
2018-04-19T03:01:33.697Z,25.10
2018-04-19T03:04:43.145Z,24.43
2018-04-19T03:07:53.365Z,24.23
2018-04-19T03:11:03.664Z,24.20
2018-04-19T03:14:15.139Z,25.57
2018-04-19T03:17:24.799Z,26.17
2018-04-19T03:20:34.738Z,24.97
2018-04-19T03:23:45.068Z,24.43
2018-04-19T03:26:55.394Z,24.73
2018-04-19T03:30:05.236Z,22.77
2018-04-19T03:33:16.119Z,22.67
2018-04-19T03:36:26.340Z,22.53
2018-04-19T03:39:36.383Z,21.97
2018-04-19T03:42:46.234Z,24.00
2018-04-19T03:45:57.595Z,22.63
2018-04-19T03:49:08.848Z,23.17
2018-04-19T03:52:18.276Z,20.13
2018-04-19T03:55:28.485Z,21.40
2018-04-19T03:58:38.368Z,21.27
2018-04-19T04:01:48.044Z,20.70
2018-04-19T04:04:57.534Z,21.70
2018-04-19T04:08:07.753Z,20.13
2018-04-19T04:11:18.353Z,20.70
2018-04-19T04:14:28.640Z,21.87
2018-04-19T04:17:56.273Z,22.20
2018-04-19T04:21:18.657Z,21.03
2018-04-19T04:24:27.994Z,22.20
2018-04-19T04:27:37.367Z,21.60
2018-04-19T04:30:46.756Z,21.93
2018-04-19T04:33:57.264Z,22.13
2018-04-19T04:37:06.734Z,21.87
2018-04-19T04:40:16.127Z,21.13
2018-04-19T04:43:25.582Z,21.67
2018-04-19T04:46:35.632Z,21.37
2018-04-19T04:49:45.855Z,20.60
2018-04-19T04:52:55.430Z,20.67
2018-04-19T04:56:04.783Z,20.93
2018-04-19T04:59:14.597Z,17.57
2018-04-19T05:02:24.457Z,19.03
2018-04-19T05:05:34.903Z,19.20
2018-04-19T05:08:44.786Z,18.50
2018-04-19T05:11:55.004Z,18.40
2018-04-19T05:15:04.502Z,18.80
2018-04-19T05:18:13.922Z,17.63
2018-04-19T05:21:23.407Z,19.03
2018-04-19T05:24:33.584Z,17.90
2018-04-19T05:27:43.856Z,15.73
2018-04-19T05:30:54.508Z,16.77
2018-04-19T05:34:04.253Z,17.00
2018-04-19T05:37:15.691Z,17.33
2018-04-19T05:40:26.016Z,16.50
2018-04-19T05:43:35.703Z,16.63
2018-04-19T05:46:45.949Z,16.90
2018-04-19T05:49:55.302Z,17.30
2018-04-19T05:53:05.016Z,16.40
2018-04-19T05:56:15.280Z,16.20
2018-04-19T05:59:25.518Z,16.90
2018-04-19T06:02:35.804Z,16.43
2018-04-19T06:05:45.664Z,15.87
2018-04-19T06:08:56.384Z,16.07
2018-04-19T06:12:06.199Z,15.63
2018-04-19T06:15:17.085Z,15.83
2018-04-19T06:18:26.885Z,15.60
2018-04-19T06:21:36.336Z,14.27
2018-04-19T06:24:46.193Z,15.07
2018-04-19T06:27:56.085Z,15.37
2018-04-19T06:31:05.540Z,16.97
2018-04-19T06:34:15.709Z,15.27
2018-04-19T06:37:25.805Z,14.57
2018-04-19T06:40:36.027Z,14.80
2018-04-19T06:43:45.476Z,14.73
2018-04-19T06:46:54.968Z,14.27
2018-04-19T06:50:04.860Z,13.55
2018-04-19T06:53:14.416Z,14.30
2018-04-19T06:56:25.928Z,14.30
2018-04-19T06:59:35.776Z,13.88
2018-04-19T07:02:46.211Z,13.40
2018-04-19T07:05:55.682Z,12.75
2018-04-19T07:09:08.059Z,13.88
2018-04-19T07:12:17.395Z,13.40
2018-04-19T07:15:27.693Z,12.90
2018-04-19T07:18:37.911Z,12.90
2018-04-19T07:21:47.812Z,12.98
2018-04-19T07:24:58.008Z,12.02
2018-04-19T07:28:08.312Z,13.90
2018-04-19T07:31:17.956Z,13.13
2018-04-19T07:34:28.202Z,12.55
2018-04-19T07:37:37.874Z,12.27
2018-04-19T07:40:48.094Z,12.48
2018-04-19T07:43:57.543Z,12.02
2018-04-19T07:47:07.780Z,12.50
2018-04-19T07:50:17.701Z,11.90
2018-04-19T07:53:28.180Z,10.88
2018-04-19T07:56:37.649Z,11.32
2018-04-19T07:59:47.385Z,11.45
2018-04-19T08:02:57.318Z,11.63
2018-04-19T08:06:07.316Z,11.70
2018-04-19T08:09:16.768Z,11.45
2018-04-19T08:12:28.287Z,16.52
2018-04-19T08:15:38.366Z,9.85
2018-04-19T08:18:48.753Z,11.23
2018-04-19T08:21:59.515Z,11.23
2018-04-19T08:25:08.873Z,11.63
2018-04-19T08:28:20.557Z,10.23
2018-04-19T08:31:30.065Z,11.15
2018-04-19T08:34:40.520Z,9.88
2018-04-19T08:37:55.323Z,11.50
2018-04-19T08:41:08.279Z,10.70
2018-04-19T08:44:20.641Z,10.35
2018-04-19T08:47:31.765Z,10.45
2018-04-19T08:50:41.380Z,10.80
2018-04-19T08:53:50.741Z,9.40
2018-04-19T08:57:00.227Z,8.65
2018-04-19T09:00:09.617Z,9.00
2018-04-19T09:03:19.617Z,9.82
2018-04-19T09:06:33.564Z,9.00
2018-04-19T09:09:42.953Z,8.68
2018-04-19T09:12:52.255Z,8.68
2018-04-19T09:16:02.579Z,7.95
2018-04-19T09:19:15.999Z,7.80
2018-04-19T09:22:25.437Z,7.32
2018-04-19T09:25:38.706Z,7.80
2018-04-19T09:28:48.116Z,8.60
2018-04-19T09:31:57.431Z,8.40
2018-04-19T09:35:06.704Z,6.50
2018-04-19T09:38:16.118Z,6.90
2018-04-19T09:41:25.561Z,6.22
2018-04-19T09:44:34.932Z,6.12
2018-04-19T09:47:45.275Z,5.50
2018-04-19T09:50:54.668Z,5.43
2018-04-19T09:54:04.271Z,6.05
2018-04-19T09:57:14.460Z,6.45
2018-04-19T10:00:23.797Z,7.30
2018-04-19T10:03:38.652Z,7.10
2018-04-19T10:06:48.007Z,7.03
2018-04-19T10:09:57.474Z,6.53
2018-04-19T10:13:06.976Z,7.03
2018-04-19T10:16:16.385Z,6.65
2018-04-19T10:19:25.834Z,6.32
2018-04-19T10:22:35.232Z,6.68
2018-04-19T10:25:44.570Z,6.68
2018-04-19T10:28:54.067Z,7.05
2018-04-19T10:32:08.072Z,6.78
2018-04-19T10:35:17.740Z,6.65
2018-04-19T10:38:27.180Z,6.35
2018-04-19T10:41:36.856Z,6.32
2018-04-19T10:44:46.324Z,6.32
2018-04-19T10:47:56.786Z,5.72
2018-04-19T10:51:06.241Z,6.45
2018-04-19T10:54:15.555Z,6.60
2018-04-19T10:57:25.040Z,6.15
2018-04-19T11:00:34.496Z,5.68
2018-04-19T11:03:43.854Z,6.20
2018-04-19T11:06:54.044Z,6.22
2018-04-19T11:10:03.423Z,5.18
2018-04-19T11:13:13.128Z,6.20
2018-04-19T11:16:22.705Z,7.65
2018-04-19T11:19:32.320Z,6.22
2018-04-19T11:22:43.026Z,6.53
2018-04-19T11:25:53.216Z,5.95
2018-04-19T11:29:02.603Z,5.60
2018-04-19T11:32:12.124Z,4.95
2018-04-19T11:35:21.455Z,5.28
2018-04-19T11:38:30.970Z,4.87
2018-04-19T11:41:40.443Z,4.80
2018-04-19T11:44:49.801Z,3.83
2018-04-19T11:47:59.293Z,4.07
2018-04-19T11:51:08.920Z,4.72
2018-04-19T11:54:19.489Z,5.45
2018-04-19T11:57:29.630Z,4.60
2018-04-19T12:00:39.063Z,4.72
2018-04-19T12:03:48.951Z,4.62
2018-04-19T12:06:58.703Z,5.20
2018-04-19T12:10:13.212Z,5.18
2018-04-19T12:13:23.672Z,4.40
2018-04-19T12:16:34.073Z,3.62
2018-04-19T12:19:45.579Z,4.45
2018-04-19T12:22:54.867Z,4.43
2018-04-19T12:26:09.224Z,3.83
2018-04-19T12:29:18.661Z,3.25
2018-04-19T12:32:28.824Z,3.37
2018-04-19T12:35:38.256Z,3.30
2018-04-19T12:38:48.511Z,3.08
2018-04-19T12:41:58.896Z,3.12
2018-04-19T12:45:08.226Z,4.37
2018-04-19T12:48:17.656Z,4.60
2018-04-19T12:51:31.380Z,4.40
2018-04-19T12:54:40.754Z,4.28
2018-04-19T12:57:50.205Z,4.68
2018-04-19T13:00:59.637Z,4.70
2018-04-19T13:04:12.513Z,4.10
2018-04-19T13:07:22.030Z,6.45
2018-04-19T13:10:31.440Z,5.80
2018-04-19T13:13:40.976Z,5.57
2018-04-19T13:16:51.643Z,4.43
2018-04-19T13:20:00.893Z,5.12
2018-04-19T13:23:10.404Z,4.25
2018-04-19T13:26:19.696Z,4.00
2018-04-19T13:29:29.183Z,3.80
2018-04-19T13:32:40.028Z,4.03
2018-04-19T13:35:49.688Z,3.97
2018-04-19T13:38:59.068Z,3.15
2018-04-19T13:42:09.523Z,3.20
2018-04-19T13:45:18.964Z,2.85
2018-04-19T13:48:29.258Z,2.95
2018-04-19T13:51:40.363Z,2.95
2018-04-19T13:54:50.542Z,2.80
2018-04-19T13:58:03.449Z,2.83
2018-04-19T14:01:12.824Z,2.33
2018-04-19T14:04:22.975Z,3.42
2018-04-19T14:07:32.330Z,2.80
2018-04-19T14:10:42.578Z,3.08
2018-04-19T14:13:52.061Z,2.50
2018-04-19T14:17:02.396Z,2.22
2018-04-19T14:20:12.721Z,2.58
2018-04-19T14:23:22.035Z,2.45
2018-04-19T14:26:31.380Z,2.50
2018-04-19T14:29:42.368Z,3.65
2018-04-19T14:32:54.086Z,2.47
2018-04-19T14:36:03.825Z,2.45
2018-04-19T14:39:13.941Z,2.90
2018-04-19T14:42:23.955Z,2.40
2018-04-19T14:45:35.040Z,2.28
2018-04-19T14:48:44.985Z,1.95
2018-04-19T14:51:56.185Z,1.77
2018-04-19T14:55:05.567Z,2.47
2018-04-19T14:58:16.301Z,1.77
2018-04-19T15:01:25.821Z,2.12
2018-04-19T15:04:35.133Z,1.98
2018-04-19T15:07:45.119Z,2.10
2018-04-19T15:10:56.649Z,1.90
2018-04-19T15:14:06.049Z,1.50
2018-04-19T15:17:16.563Z,2.05
2018-04-19T15:20:26.240Z,4.40
2018-04-19T15:23:36.882Z,2.00
2018-04-19T15:26:47.012Z,1.65
2018-04-19T15:29:57.668Z,1.62
2018-04-19T15:33:07.500Z,1.35
2018-04-19T15:36:17.023Z,6.57
2018-04-19T15:39:27.370Z,1.33
2018-04-19T15:42:37.316Z,1.42
2018-04-19T15:45:48.112Z,2.00
2018-04-19T15:48:57.399Z,1.42
2018-04-19T15:52:06.808Z,1.80
2018-04-19T15:55:16.424Z,1.70
2018-04-19T15:58:25.900Z,1.20
2018-04-19T16:01:35.409Z,3.03
2018-04-19T16:04:44.826Z,1.80
2018-04-19T16:07:54.952Z,1.73
2018-04-19T16:11:06.959Z,5.55
2018-04-19T16:14:16.260Z,8.63
2018-04-19T16:17:25.672Z,6.07
2018-04-19T16:20:35.304Z,1.90
2018-04-19T16:23:45.536Z,1.65
2018-04-19T16:26:55.123Z,3.72
2018-04-19T16:30:04.368Z,3.17
2018-04-19T16:33:16.913Z,2.53
2018-04-19T16:36:28.396Z,2.60
2018-04-19T16:39:37.837Z,2.40
2018-04-19T16:42:47.254Z,2.12
2018-04-19T16:45:56.808Z,3.20
2018-04-19T16:49:06.115Z,2.72
2018-04-19T16:52:15.605Z,2.70
2018-04-19T16:55:25.431Z,3.65
2018-04-19T16:58:35.661Z,2.97
2018-04-19T17:01:47.186Z,3.55
2018-04-19T17:04:56.515Z,3.03
2018-04-19T17:08:06.058Z,2.83
2018-04-19T17:11:17.022Z,3.85
2018-04-19T17:14:27.548Z,2.97
2018-04-19T17:17:37.771Z,4.03
2018-04-19T17:20:47.773Z,4.15
2018-04-19T17:23:58.071Z,4.70
2018-04-19T17:27:07.624Z,6.40
2018-04-19T17:30:17.288Z,8.73
2018-04-19T17:33:27.502Z,36.85
2018-04-19T17:36:36.876Z,16.90
2018-04-19T17:39:48.944Z,4.28
2018-04-19T17:42:58.363Z,13.80
2018-04-19T17:46:07.891Z,7.60
2018-04-19T17:49:17.464Z,4.97
2018-04-19T17:52:27.757Z,24.05
2018-04-19T17:55:37.699Z,8.13
2018-04-19T17:58:49.792Z,5.47
2018-04-19T18:01:59.464Z,3.87
2018-04-19T18:05:08.948Z,3.53
2018-04-19T18:08:19.022Z,3.70
2018-04-19T18:11:29.192Z,9.15
2018-04-19T18:14:41.180Z,5.18
2018-04-19T18:17:52.582Z,3.47
2018-04-19T18:21:02.585Z,7.10
2018-04-19T18:24:12.457Z,3.35
2018-04-19T18:27:21.826Z,3.37
2018-04-19T18:30:31.732Z,3.10
2018-04-19T18:33:41.846Z,2.70
2018-04-19T18:36:52.083Z,3.10
2018-04-19T18:40:01.650Z,2.75
2018-04-19T18:43:12.075Z,2.62
2018-04-19T18:46:22.062Z,3.42
2018-04-19T18:49:31.500Z,3.35
2018-04-19T18:52:41.376Z,3.15
2018-04-19T18:55:52.395Z,2.35
2018-04-19T18:59:02.705Z,3.40
2018-04-19T19:02:12.066Z,4.15
2018-04-19T19:05:21.679Z,5.57
2018-04-19T19:08:32.212Z,5.30
2018-04-19T19:11:42.256Z,3.92
2018-04-19T19:14:52.386Z,3.30
2018-04-19T19:18:19.616Z,3.10
2018-04-19T19:21:30.257Z,3.00
2018-04-19T19:24:40.933Z,3.50
2018-04-19T19:27:52.383Z,3.40
2018-04-19T19:31:03.160Z,3.50
2018-04-19T19:34:14.562Z,3.95
2018-04-19T19:37:24.268Z,3.78
2018-04-19T19:40:34.913Z,3.58
2018-04-19T19:43:45.263Z,6.53
2018-04-19T19:46:55.136Z,7.18
2018-04-19T19:50:04.952Z,4.55
2018-04-19T19:53:14.641Z,4.32
2018-04-19T19:56:26.452Z,4.43
2018-04-19T19:59:37.171Z,4.40
2018-04-19T20:02:46.872Z,4.30
2018-04-19T20:05:57.111Z,4.03
2018-04-19T20:09:07.385Z,4.53
2018-04-19T20:12:22.120Z,4.30
2018-04-19T20:15:33.012Z,4.70
2018-04-19T20:18:43.360Z,4.53
2018-04-19T20:21:54.284Z,8.07
2018-04-19T20:25:04.969Z,5.12
2018-04-19T20:28:14.415Z,4.87
2018-04-19T20:31:24.235Z,4.95
2018-04-19T20:34:33.896Z,4.57
2018-04-19T20:37:43.608Z,5.37
2018-04-19T20:40:55.683Z,4.80
2018-04-19T20:44:05.491Z,4.75
2018-04-19T20:47:15.427Z,4.68
2018-04-19T20:50:25.409Z,4.55
2018-04-19T20:53:36.002Z,4.72
2018-04-19T20:56:45.378Z,5.07
2018-04-19T20:59:55.576Z,5.25
2018-04-19T21:03:05.003Z,5.32
2018-04-19T21:06:14.472Z,5.10
2018-04-19T21:09:23.872Z,5.07
2018-04-19T21:12:35.144Z,5.45
2018-04-19T21:15:46.728Z,10.57
2018-04-19T21:18:56.719Z,8.27
2018-04-19T21:22:06.917Z,7.37
2018-04-19T21:25:16.423Z,6.68
2018-04-19T21:28:26.712Z,6.80
2018-04-19T21:31:37.324Z,6.03
2018-04-19T21:34:46.853Z,5.68
2018-04-19T21:37:57.208Z,5.75
2018-04-19T21:41:06.644Z,5.80
2018-04-19T21:44:16.871Z,5.68
2018-04-19T21:47:26.364Z,6.00
2018-04-19T21:50:35.779Z,5.53
2018-04-19T21:53:46.037Z,6.18
2018-04-19T21:56:57.128Z,5.68
2018-04-19T22:00:08.082Z,6.22
2018-04-19T22:03:17.510Z,6.03
2018-04-19T22:06:26.885Z,6.15
2018-04-19T22:09:36.704Z,5.80
2018-04-19T22:12:46.945Z,6.40
2018-04-19T22:15:58.050Z,6.25
2018-04-19T22:19:08.725Z,5.85
2018-04-19T22:22:18.161Z,9.70
2018-04-19T22:25:28.025Z,20.10
2018-04-19T22:28:39.097Z,6.40
2018-04-19T22:31:48.518Z,6.30
2018-04-19T22:34:59.886Z,6.37
2018-04-19T22:38:09.286Z,6.32
2018-04-19T22:41:19.144Z,5.78
2018-04-19T22:44:29.271Z,6.25
2018-04-19T22:47:39.339Z,6.30
2018-04-19T22:50:49.058Z,6.05
2018-04-19T22:53:59.805Z,5.95
2018-04-19T22:57:09.985Z,6.10
2018-04-19T23:00:20.832Z,6.78
2018-04-19T23:03:30.978Z,5.80
2018-04-19T23:06:40.382Z,7.40
2018-04-19T23:09:50.262Z,7.53
2018-04-19T23:13:00.484Z,6.60
2018-04-19T23:16:10.739Z,5.37
2018-04-19T23:19:20.792Z,6.28
2018-04-19T23:22:35.262Z,6.78
2018-04-19T23:25:44.786Z,5.95
2018-04-19T23:28:54.209Z,6.32
2018-04-19T23:32:03.663Z,6.62
2018-04-19T23:35:13.943Z,6.93
2018-04-19T23:38:23.782Z,6.45
2018-04-19T23:41:33.393Z,6.00
2018-04-19T23:44:42.862Z,7.03
2018-04-19T23:47:52.747Z,6.55
2018-04-19T23:51:02.817Z,6.60
2018-04-19T23:54:13.256Z,7.00
2018-04-19T23:57:27.758Z,6.22
